createdAt,value
2023-01-19T00:00:12.864Z,9.747510
2023-01-19T00:01:12.852Z,9.747516
2023-01-19T00:02:12.829Z,9.747485
2023-01-19T00:03:12.893Z,9.747435
2023-01-19T00:04:12.797Z,9.747493
2023-01-19T00:05:12.780Z,9.747394
2023-01-19T00:06:12.897Z,9.747504
2023-01-19T00:07:12.763Z,9.747446
2023-01-19T00:08:12.801Z,9.747443
2023-01-19T00:09:12.754Z,9.747409
2023-01-19T00:10:12.760Z,9.747374
2023-01-19T00:11:12.742Z,9.747468
2023-01-19T00:12:12.725Z,9.747444
2023-01-19T00:13:12.795Z,9.747388
2023-01-19T00:14:12.706Z,9.747321
2023-01-19T00:15:12.747Z,9.747407
2023-01-19T00:16:12.732Z,9.747471
2023-01-19T00:17:12.725Z,9.747467
2023-01-19T00:18:12.722Z,9.747488
2023-01-19T00:19:12.753Z,9.747499
2023-01-19T00:20:12.728Z,9.747596
2023-01-19T00:21:12.666Z,9.747642
2023-01-19T00:22:12.653Z,9.747494
2023-01-19T00:23:12.664Z,9.747458
2023-01-19T00:24:12.643Z,9.747480
2023-01-19T00:25:12.623Z,9.747546
2023-01-19T00:26:12.613Z,9.747521
2023-01-19T00:27:12.620Z,9.747315
2023-01-19T00:28:12.650Z,9.747364
2023-01-19T00:29:12.593Z,9.747273
2023-01-19T00:30:12.581Z,9.747344
2023-01-19T00:31:12.639Z,9.747342
2023-01-19T00:32:12.622Z,9.747327
2023-01-19T00:33:12.634Z,9.747269
2023-01-19T00:34:12.565Z,9.747284
2023-01-19T00:35:12.593Z,9.747423
2023-01-19T00:36:12.571Z,9.747344
2023-01-19T00:37:12.700Z,9.747472
2023-01-19T00:38:12.592Z,9.747337
2023-01-19T00:39:12.529Z,9.747328
2023-01-19T00:40:12.551Z,9.747355
2023-01-19T00:41:12.548Z,9.747422
2023-01-19T00:42:12.546Z,9.747367
2023-01-19T00:43:12.542Z,9.747405
2023-01-19T00:44:12.529Z,9.747354
2023-01-19T00:45:12.524Z,9.747422
2023-01-19T00:46:12.533Z,9.747642
2023-01-19T00:47:12.534Z,9.747499
2023-01-19T00:48:12.487Z,9.747278
2023-01-19T00:49:12.484Z,9.747205
2023-01-19T00:50:12.461Z,9.747379
2023-01-19T00:51:12.468Z,9.747403
2023-01-19T00:52:12.438Z,9.747513
2023-01-19T00:53:12.452Z,9.747463
2023-01-19T00:54:12.450Z,9.747594
2023-01-19T00:55:12.484Z,9.747415
2023-01-19T00:56:12.427Z,9.747370
2023-01-19T00:57:12.478Z,9.747509
2023-01-19T00:58:12.400Z,9.747428
2023-01-19T00:59:12.430Z,9.747357
2023-01-19T01:00:12.390Z,9.747458
2023-01-19T01:01:12.499Z,9.747613
2023-01-19T01:02:12.560Z,9.747770
2023-01-19T01:03:12.470Z,9.747452
2023-01-19T01:04:12.443Z,9.747215
2023-01-19T01:05:12.389Z,9.747209
2023-01-19T01:06:12.416Z,9.747260
2023-01-19T01:07:12.345Z,9.747273
2023-01-19T01:08:12.337Z,9.747376
2023-01-19T01:09:12.411Z,9.747354
2023-01-19T01:10:12.304Z,9.747376
2023-01-19T01:11:12.317Z,9.747192
2023-01-19T01:12:12.287Z,9.747231
2023-01-19T01:13:20.499Z,9.747157
2023-01-19T01:14:13.326Z,9.747286
2023-01-19T01:15:13.325Z,9.747219
2023-01-19T01:16:12.321Z,9.747314
2023-01-19T01:17:12.279Z,9.747311
2023-01-19T01:18:12.305Z,9.747326
2023-01-19T01:19:12.270Z,9.747313
2023-01-19T01:20:12.247Z,9.747295
2023-01-19T01:21:12.242Z,9.747330
2023-01-19T01:22:12.220Z,9.747347
2023-01-19T01:23:12.232Z,9.747443
2023-01-19T01:24:12.236Z,9.747364
2023-01-19T01:25:12.202Z,9.747330
2023-01-19T01:26:12.233Z,9.747377
2023-01-19T01:27:12.206Z,9.747461
2023-01-19T01:28:12.204Z,9.747478
2023-01-19T01:29:12.173Z,9.747378
2023-01-19T01:30:12.199Z,9.747313
2023-01-19T01:31:12.236Z,9.747349
2023-01-19T01:32:12.166Z,9.747368
2023-01-19T01:33:12.152Z,9.747559
2023-01-19T01:34:12.153Z,9.747305
2023-01-19T01:35:12.173Z,9.747254
2023-01-19T01:36:12.195Z,9.747305
2023-01-19T01:37:12.131Z,9.747272
2023-01-19T01:38:12.129Z,9.747264
2023-01-19T01:39:12.104Z,9.747215
2023-01-19T01:40:12.129Z,9.747299
2023-01-19T01:41:12.082Z,9.747301
2023-01-19T01:42:12.119Z,9.747221
2023-01-19T01:43:12.072Z,9.747402
2023-01-19T01:44:12.095Z,9.747445
2023-01-19T01:45:12.108Z,9.747422
2023-01-19T01:46:12.075Z,9.747395
2023-01-19T01:47:12.078Z,9.747330
2023-01-19T01:48:12.049Z,9.747334
2023-01-19T01:49:12.044Z,9.747380
2023-01-19T01:50:12.055Z,9.747355
2023-01-19T01:51:12.017Z,9.747274
2023-01-19T01:52:12.044Z,9.747261
2023-01-19T01:53:12.365Z,9.747274
2023-01-19T01:54:12.049Z,9.747443
2023-01-19T01:55:12.053Z,9.747295
2023-01-19T01:56:11.992Z,9.747413
2023-01-19T01:57:11.991Z,9.747222
2023-01-19T01:58:11.984Z,9.747000
2023-01-19T01:59:11.969Z,9.747113
2023-01-19T02:00:11.980Z,9.747182
2023-01-19T02:01:12.041Z,9.747231
2023-01-19T02:02:11.937Z,9.747250
2023-01-19T02:03:11.972Z,9.747276
2023-01-19T02:04:11.908Z,9.747211
2023-01-19T02:05:11.910Z,9.747194
2023-01-19T02:06:11.935Z,9.747177
2023-01-19T02:07:11.931Z,9.747300
2023-01-19T02:08:11.924Z,9.747273
2023-01-19T02:09:11.910Z,9.747328
2023-01-19T02:10:11.891Z,9.747351
2023-01-19T02:11:11.901Z,9.747370
2023-01-19T02:12:11.899Z,9.747341
2023-01-19T02:13:11.915Z,9.747298
2023-01-19T02:14:11.911Z,9.747340
2023-01-19T02:15:11.854Z,9.747351
2023-01-19T02:16:11.911Z,9.747423
2023-01-19T02:17:11.859Z,9.747460
2023-01-19T02:18:11.848Z,9.747504
2023-01-19T02:19:11.868Z,9.747558
2023-01-19T02:20:11.800Z,9.747549
2023-01-19T02:21:11.828Z,9.747516
2023-01-19T02:22:11.842Z,9.747414
2023-01-19T02:23:11.812Z,9.747572
2023-01-19T02:24:11.791Z,9.747470
2023-01-19T02:25:11.772Z,9.747446
2023-01-19T02:26:11.775Z,9.747414
2023-01-19T02:27:11.823Z,9.747407
2023-01-19T02:28:11.755Z,9.747381
2023-01-19T02:29:11.744Z,9.747398
2023-01-19T02:30:11.744Z,9.747372
2023-01-19T02:31:11.724Z,9.747380
2023-01-19T02:32:11.750Z,9.747445
2023-01-19T02:33:11.722Z,9.747449
2023-01-19T02:34:11.719Z,9.747479
2023-01-19T02:35:11.731Z,9.747503
2023-01-19T02:36:11.685Z,9.747434
2023-01-19T02:37:11.727Z,9.747494
2023-01-19T02:38:11.696Z,9.747452
2023-01-19T02:39:11.650Z,9.747247
2023-01-19T02:40:11.713Z,9.747370
2023-01-19T02:41:11.637Z,9.747485
2023-01-19T02:42:11.668Z,9.747391
2023-01-19T02:43:11.626Z,9.747389
2023-01-19T02:44:11.654Z,9.747391
2023-01-19T02:45:11.623Z,9.747370
2023-01-19T02:46:11.696Z,9.747449
2023-01-19T02:47:11.629Z,9.747479
2023-01-19T02:48:11.640Z,9.747427
2023-01-19T02:49:11.613Z,9.747413
2023-01-19T02:50:11.596Z,9.747412
2023-01-19T02:51:11.567Z,9.747396
2023-01-19T02:52:11.634Z,9.747355
2023-01-19T02:53:11.569Z,9.747223
2023-01-19T02:54:11.553Z,9.747296
2023-01-19T02:55:11.547Z,9.747394
2023-01-19T02:56:11.542Z,9.747380
2023-01-19T02:57:11.547Z,9.747449
2023-01-19T02:58:11.603Z,9.747537
2023-01-19T02:59:11.588Z,9.747558
2023-01-19T03:00:11.555Z,9.747442
2023-01-19T03:01:11.596Z,9.747466
2023-01-19T03:02:11.609Z,9.747371
2023-01-19T03:03:11.523Z,9.747349
2023-01-19T03:04:11.496Z,9.747443
2023-01-19T03:05:11.483Z,9.747408
2023-01-19T03:06:11.486Z,9.747421
2023-01-19T03:07:11.489Z,9.747469
2023-01-19T03:08:11.473Z,9.747462
2023-01-19T03:09:11.456Z,9.747476
2023-01-19T03:10:11.452Z,9.747455
2023-01-19T03:11:11.511Z,9.747330
2023-01-19T03:12:11.414Z,9.747327
2023-01-19T03:13:11.446Z,9.747368
2023-01-19T03:14:11.429Z,9.747392
2023-01-19T03:15:11.425Z,9.747442
2023-01-19T03:16:11.477Z,9.747400
2023-01-19T03:17:11.400Z,9.747312
2023-01-19T03:18:11.427Z,9.747299
2023-01-19T03:19:11.386Z,9.747398
2023-01-19T03:20:11.412Z,9.747357
2023-01-19T03:21:11.365Z,9.747292
2023-01-19T03:22:11.420Z,9.747356
2023-01-19T03:23:11.420Z,9.747295
2023-01-19T03:24:11.339Z,9.747391
2023-01-19T03:25:11.325Z,9.747263
2023-01-19T03:26:11.333Z,9.747396
2023-01-19T03:27:11.443Z,9.747404
2023-01-19T03:28:11.329Z,9.747293
2023-01-19T03:29:11.302Z,9.747211
2023-01-19T03:30:11.368Z,9.747383
2023-01-19T03:31:11.322Z,9.747485
2023-01-19T03:32:11.272Z,9.747486
2023-01-19T03:33:11.329Z,9.747477
2023-01-19T03:34:11.290Z,9.747410
2023-01-19T03:35:11.243Z,9.747518
2023-01-19T03:36:11.253Z,9.747488
2023-01-19T03:37:11.269Z,9.747547
2023-01-19T03:38:11.234Z,9.747516
2023-01-19T03:39:11.271Z,9.747491
2023-01-19T03:40:11.233Z,9.747623
2023-01-19T03:41:11.209Z,9.747471
2023-01-19T03:42:11.240Z,9.747355
2023-01-19T03:43:11.211Z,9.747467
2023-01-19T03:44:11.217Z,9.747460
2023-01-19T03:45:11.195Z,9.747444
2023-01-19T03:46:11.316Z,9.747435
2023-01-19T03:47:11.182Z,9.747455
2023-01-19T03:48:11.155Z,9.747420
2023-01-19T03:49:11.227Z,9.747450
2023-01-19T03:50:11.152Z,9.747303
2023-01-19T03:51:11.131Z,9.747071
2023-01-19T03:52:11.145Z,9.747070
2023-01-19T03:53:11.994Z,9.747243
2023-01-19T03:54:11.227Z,9.747392
2023-01-19T03:55:11.121Z,9.747370
2023-01-19T03:56:11.115Z,9.747309
2023-01-19T03:57:11.118Z,9.747617
2023-01-19T03:58:11.103Z,9.746904
2023-01-19T03:59:11.095Z,9.746926
2023-01-19T04:00:11.127Z,9.746986
2023-01-19T04:01:11.215Z,9.747130
2023-01-19T04:02:11.178Z,9.747203
2023-01-19T04:03:11.120Z,9.746535
2023-01-19T04:04:11.081Z,9.746896
2023-01-19T04:05:11.082Z,9.746890
2023-01-19T04:06:11.073Z,9.747397
2023-01-19T04:07:11.028Z,9.747307
2023-01-19T04:08:11.034Z,9.748046
2023-01-19T04:09:11.017Z,9.747710
2023-01-19T04:10:11.024Z,9.747459
2023-01-19T04:11:11.019Z,9.747511
2023-01-19T04:12:11.021Z,9.747162
2023-01-19T04:13:10.974Z,9.747148
2023-01-19T04:14:10.979Z,9.747526
2023-01-19T04:15:11.019Z,9.747481
2023-01-19T04:16:10.998Z,9.747437
2023-01-19T04:17:10.945Z,9.747547
2023-01-19T04:18:11.001Z,9.747446
2023-01-19T04:19:10.951Z,9.747398
2023-01-19T04:20:10.997Z,9.747384
2023-01-19T04:21:10.927Z,9.747254
2023-01-19T04:22:10.978Z,9.747417
2023-01-19T04:23:10.936Z,9.747421
2023-01-19T04:24:10.917Z,9.747326
2023-01-19T04:25:10.962Z,9.747300
2023-01-19T04:26:10.892Z,9.747332
2023-01-19T04:27:10.904Z,9.747427
2023-01-19T04:28:11.851Z,9.747427
2023-01-19T04:29:10.864Z,9.747396
2023-01-19T04:30:10.894Z,9.747261
2023-01-19T04:31:10.949Z,9.747379
2023-01-19T04:32:10.843Z,9.747435
2023-01-19T04:33:10.821Z,9.747327
2023-01-19T04:34:10.820Z,9.747042
2023-01-19T04:35:10.827Z,9.747406
2023-01-19T04:36:10.873Z,9.747258
2023-01-19T04:37:10.844Z,9.747269
2023-01-19T04:38:10.846Z,9.747256
2023-01-19T04:39:10.797Z,9.747154
2023-01-19T04:40:10.820Z,9.747136
2023-01-19T04:41:10.841Z,9.747299
2023-01-19T04:42:43.863Z,9.747064
2023-01-19T04:43:10.749Z,9.747303
2023-01-19T04:44:10.748Z,9.747564
2023-01-19T04:45:10.739Z,9.747516
2023-01-19T04:46:10.829Z,9.747498
2023-01-19T04:47:10.723Z,9.747459
2023-01-19T04:48:10.719Z,9.747386
2023-01-19T04:49:10.705Z,9.747321
2023-01-19T04:50:10.709Z,9.747306
2023-01-19T04:51:10.722Z,9.747318
2023-01-19T04:52:10.674Z,9.747390
2023-01-19T04:53:11.695Z,9.747462
2023-01-19T04:54:10.680Z,9.747543
2023-01-19T04:55:10.668Z,9.747454
2023-01-19T04:56:10.699Z,9.747577
2023-01-19T04:57:10.661Z,9.747517
2023-01-19T04:58:10.670Z,9.747405
2023-01-19T04:59:10.649Z,9.747448
2023-01-19T05:00:10.632Z,9.747302
2023-01-19T05:01:10.711Z,9.747377
2023-01-19T05:02:10.725Z,9.747446
2023-01-19T05:03:10.656Z,9.747365
2023-01-19T05:04:10.609Z,9.747362
2023-01-19T05:05:10.599Z,9.747418
2023-01-19T05:06:10.614Z,9.747280
2023-01-19T05:07:10.590Z,9.747321
2023-01-19T05:08:10.579Z,9.747359
2023-01-19T05:09:10.574Z,9.747397
2023-01-19T05:10:10.566Z,9.747463
2023-01-19T05:11:10.581Z,9.747391
2023-01-19T05:12:10.566Z,9.747442
2023-01-19T05:13:10.541Z,9.747371
2023-01-19T05:14:10.530Z,9.747478
2023-01-19T05:15:10.535Z,9.747452
2023-01-19T05:16:10.606Z,9.747422
2023-01-19T05:17:10.509Z,9.747367
2023-01-19T05:18:10.505Z,9.747400
2023-01-19T05:19:10.498Z,9.747502
2023-01-19T05:20:10.497Z,9.747555
2023-01-19T05:21:10.512Z,9.747459
2023-01-19T05:22:10.481Z,9.747500
2023-01-19T05:23:10.467Z,9.747486
2023-01-19T05:24:10.468Z,9.747432
2023-01-19T05:25:10.473Z,9.747398
2023-01-19T05:26:10.541Z,9.747444
2023-01-19T05:27:10.443Z,9.747449
2023-01-19T05:28:10.435Z,9.747343
2023-01-19T05:29:10.436Z,9.747498
2023-01-19T05:30:10.424Z,9.747440
2023-01-19T05:31:10.552Z,9.747451
2023-01-19T05:32:10.410Z,9.747511
2023-01-19T05:33:10.395Z,9.747519
2023-01-19T05:34:10.388Z,9.747459
2023-01-19T05:35:10.387Z,9.747370
2023-01-19T05:36:10.424Z,9.747293
2023-01-19T05:37:10.376Z,9.747422
2023-01-19T05:38:10.372Z,9.747432
2023-01-19T05:39:10.356Z,9.747474
2023-01-19T05:40:10.356Z,9.747467
2023-01-19T05:41:10.371Z,9.747397
2023-01-19T05:42:10.329Z,9.747394
2023-01-19T05:43:10.325Z,9.747397
2023-01-19T05:44:10.325Z,9.747491
2023-01-19T05:45:10.315Z,9.747533
2023-01-19T05:46:10.332Z,9.747528
2023-01-19T05:47:10.303Z,9.747523
2023-01-19T05:48:10.340Z,9.747483
2023-01-19T05:49:10.287Z,9.747518
2023-01-19T05:50:10.279Z,9.747556
2023-01-19T05:51:10.294Z,9.747489
2023-01-19T05:52:10.266Z,9.747401
2023-01-19T05:53:10.260Z,9.747459
2023-01-19T05:54:10.248Z,9.747478
2023-01-19T05:55:10.247Z,9.747588
2023-01-19T05:56:10.268Z,9.747468
2023-01-19T05:57:10.230Z,9.747421
2023-01-19T05:58:10.983Z,9.747373
2023-01-19T05:59:10.209Z,9.747440
2023-01-19T06:00:10.293Z,9.747647
2023-01-19T06:01:10.273Z,9.747610
2023-01-19T06:02:10.223Z,9.747644
2023-01-19T06:03:10.270Z,9.747637
2023-01-19T06:04:10.169Z,9.747602
2023-01-19T06:05:10.172Z,9.747504
2023-01-19T06:06:10.190Z,9.747462
2023-01-19T06:07:10.154Z,9.747392
2023-01-19T06:08:10.148Z,9.747458
2023-01-19T06:09:10.150Z,9.747538
2023-01-19T06:10:10.140Z,9.747376
2023-01-19T06:11:10.176Z,9.747258
2023-01-19T06:12:10.130Z,9.747283
2023-01-19T06:13:10.122Z,9.747415
2023-01-19T06:14:10.103Z,9.747386
2023-01-19T06:15:10.119Z,9.747507
2023-01-19T06:16:10.144Z,9.747613
2023-01-19T06:17:10.094Z,9.747458
2023-01-19T06:18:10.078Z,9.747363
2023-01-19T06:19:10.072Z,9.747402
2023-01-19T06:20:10.064Z,9.747518
2023-01-19T06:21:10.059Z,9.747425
2023-01-19T06:22:10.074Z,9.747542
2023-01-19T06:23:10.050Z,9.747432
2023-01-19T06:24:10.042Z,9.747448
2023-01-19T06:25:10.028Z,9.747415
2023-01-19T06:26:10.025Z,9.747464
2023-01-19T06:27:10.040Z,9.747505
2023-01-19T06:28:09.999Z,9.747552
2023-01-19T06:29:10.009Z,9.747550
2023-01-19T06:30:09.995Z,9.747518
2023-01-19T06:31:10.092Z,9.747494
2023-01-19T06:32:10.075Z,9.747492
2023-01-19T06:33:09.972Z,9.747497
2023-01-19T06:34:09.969Z,9.747423
2023-01-19T06:35:09.947Z,9.747223
2023-01-19T06:36:09.951Z,9.747299
2023-01-19T06:37:09.975Z,9.747519
2023-01-19T06:38:09.935Z,9.747482
2023-01-19T06:39:09.933Z,9.747494
2023-01-19T06:40:09.919Z,9.747551
2023-01-19T06:41:09.912Z,9.747463
2023-01-19T06:42:09.929Z,9.747362
2023-01-19T06:43:09.915Z,9.747476
2023-01-19T06:44:09.911Z,9.747455
2023-01-19T06:45:09.892Z,9.747418
2023-01-19T06:46:09.929Z,9.747433
2023-01-19T06:47:15.290Z,9.747373
2023-01-19T06:48:10.881Z,9.747498
2023-01-19T06:49:09.875Z,9.747321
2023-01-19T06:50:09.850Z,9.747281
2023-01-19T06:51:09.846Z,9.747333
2023-01-19T06:52:09.869Z,9.747340
2023-01-19T06:53:09.828Z,9.747480
2023-01-19T06:54:09.831Z,9.747493
2023-01-19T06:55:09.814Z,9.747446
2023-01-19T06:56:09.807Z,9.747513
2023-01-19T06:57:09.822Z,9.747430
2023-01-19T06:58:09.812Z,9.747665
2023-01-19T06:59:09.786Z,9.747517
2023-01-19T07:00:09.781Z,9.747384
2023-01-19T07:01:09.917Z,9.747388
2023-01-19T07:02:27.917Z,9.747327
2023-01-19T07:03:11.806Z,9.747310
2023-01-19T07:04:09.756Z,9.747439
2023-01-19T07:05:09.755Z,9.747444
2023-01-19T07:06:09.734Z,9.747494
2023-01-19T07:07:09.753Z,9.747460
2023-01-19T07:08:09.721Z,9.747342
2023-01-19T07:09:09.721Z,9.747211
2023-01-19T07:10:09.710Z,9.747418
2023-01-19T07:11:22.362Z,9.747519
2023-01-19T07:12:10.722Z,9.747533
2023-01-19T07:13:09.694Z,9.747292
2023-01-19T07:14:09.685Z,9.747274
2023-01-19T07:15:09.672Z,9.747348
2023-01-19T07:16:09.663Z,9.747450
2023-01-19T07:17:09.683Z,9.747547
2023-01-19T07:18:10.662Z,9.747504
2023-01-19T07:19:09.649Z,9.747220
2023-01-19T07:20:09.637Z,9.747185
2023-01-19T07:21:09.634Z,9.747104
2023-01-19T07:22:09.677Z,9.747434
2023-01-19T07:23:09.614Z,9.747491
2023-01-19T07:24:09.613Z,9.747529
2023-01-19T07:25:09.639Z,9.747509
2023-01-19T07:26:09.611Z,9.747394
2023-01-19T07:27:09.612Z,9.747438
2023-01-19T07:28:09.587Z,9.747483
2023-01-19T07:29:09.576Z,9.747307
2023-01-19T07:30:09.573Z,9.747281
2023-01-19T07:31:09.725Z,9.747345
2023-01-19T07:32:10.588Z,9.747349
2023-01-19T07:33:09.545Z,9.747341
2023-01-19T07:34:11.191Z,9.747368
2023-01-19T07:35:09.533Z,9.747458
2023-01-19T07:36:09.535Z,9.747415
2023-01-19T07:37:09.566Z,9.747375
2023-01-19T07:38:09.521Z,9.747326
2023-01-19T07:39:09.524Z,9.747269
2023-01-19T07:40:09.513Z,9.747273
2023-01-19T07:41:09.499Z,9.747311
2023-01-19T07:42:09.516Z,9.747256
2023-01-19T07:43:09.496Z,9.747280
2023-01-19T07:44:09.490Z,9.747264
2023-01-19T07:45:09.469Z,9.747272
2023-01-19T07:46:09.501Z,9.747423
2023-01-19T07:47:09.482Z,9.747303
2023-01-19T07:48:09.458Z,9.747316
2023-01-19T07:49:09.447Z,9.747293
2023-01-19T07:50:09.433Z,9.747393
2023-01-19T07:51:12.498Z,9.747401
2023-01-19T07:52:10.447Z,9.747325
2023-01-19T07:53:09.413Z,9.747453
2023-01-19T07:54:09.410Z,9.747355
2023-01-19T07:55:09.396Z,9.747318
2023-01-19T07:56:09.394Z,9.747481
2023-01-19T07:57:09.405Z,9.747505
2023-01-19T07:58:09.376Z,9.747431
2023-01-19T07:59:09.367Z,9.747450
2023-01-19T08:00:09.358Z,9.747468
2023-01-19T08:01:09.490Z,9.747444
2023-01-19T08:02:09.418Z,9.747370
2023-01-19T08:03:09.339Z,9.747395
2023-01-19T08:04:09.361Z,9.747240
2023-01-19T08:05:09.328Z,9.747317
2023-01-19T08:06:09.328Z,9.747470
2023-01-19T08:07:09.339Z,9.747358
2023-01-19T08:08:09.308Z,9.747446
2023-01-19T08:09:09.288Z,9.747462
2023-01-19T08:10:10.312Z,9.747403
2023-01-19T08:11:09.288Z,9.747421
2023-01-19T08:12:09.302Z,9.747451
2023-01-19T08:13:09.281Z,9.747403
2023-01-19T08:14:09.267Z,9.747410
2023-01-19T08:15:09.252Z,9.747515
2023-01-19T08:16:09.297Z,9.747463
2023-01-19T08:17:09.267Z,9.747442
2023-01-19T08:18:09.231Z,9.747427
2023-01-19T08:19:09.245Z,9.747334
2023-01-19T08:20:09.256Z,9.747237
2023-01-19T08:21:09.226Z,9.747133
2023-01-19T08:22:09.237Z,9.747166
2023-01-19T08:23:09.199Z,9.747419
2023-01-19T08:24:09.218Z,9.747423
2023-01-19T08:25:09.182Z,9.747396
2023-01-19T08:26:09.176Z,9.747350
2023-01-19T08:27:09.244Z,9.746947
2023-01-19T08:28:09.176Z,9.747105
2023-01-19T08:29:09.172Z,9.747305
2023-01-19T08:30:09.156Z,9.747329
2023-01-19T08:31:20.148Z,9.747342
2023-01-19T08:32:11.273Z,9.747293
2023-01-19T08:33:09.121Z,9.747174
2023-01-19T08:34:09.110Z,9.747435
2023-01-19T08:35:09.106Z,9.747323
2023-01-19T08:36:09.096Z,9.747236
2023-01-19T08:37:09.120Z,9.747230
2023-01-19T08:38:09.089Z,9.747333
2023-01-19T08:39:09.087Z,9.747355
2023-01-19T08:40:09.067Z,9.747557
2023-01-19T08:41:09.063Z,9.747559
2023-01-19T08:42:09.061Z,9.747422
2023-01-19T08:43:09.101Z,9.747438
2023-01-19T08:44:09.050Z,9.747156
2023-01-19T08:45:09.028Z,9.747452
2023-01-19T08:46:09.091Z,9.747410
2023-01-19T08:47:09.072Z,9.747350
2023-01-19T08:48:09.031Z,9.747195
2023-01-19T08:49:08.994Z,9.747291
2023-01-19T08:50:08.996Z,9.747414
2023-01-19T08:51:08.993Z,9.747368
2023-01-19T08:52:08.976Z,9.747343
2023-01-19T08:53:08.998Z,9.747456
2023-01-19T08:54:09.889Z,9.747328
2023-01-19T08:55:08.952Z,9.747339
2023-01-19T08:56:08.946Z,9.747202
2023-01-19T08:57:08.938Z,9.747024
2023-01-19T08:58:08.964Z,9.747199
2023-01-19T08:59:11.307Z,9.747294
2023-01-19T09:00:09.916Z,9.747305
2023-01-19T09:01:08.951Z,9.747335
2023-01-19T09:02:08.976Z,9.747387
2023-01-19T09:03:08.973Z,9.747254
2023-01-19T09:04:08.879Z,9.747367
2023-01-19T09:05:08.883Z,9.747384
2023-01-19T09:06:08.877Z,9.747306
2023-01-19T09:07:08.863Z,9.747299
2023-01-19T09:08:08.887Z,9.747264
2023-01-19T09:09:08.843Z,9.747423
2023-01-19T09:10:08.839Z,9.747288
2023-01-19T09:11:08.829Z,9.747085
2023-01-19T09:12:08.854Z,9.746978
2023-01-19T09:13:08.852Z,9.747496
2023-01-19T09:14:08.829Z,9.747515
2023-01-19T09:15:08.828Z,9.747520
2023-01-19T09:16:08.860Z,9.747461
2023-01-19T09:17:08.784Z,9.747470
2023-01-19T09:18:08.800Z,9.747480
2023-01-19T09:19:08.786Z,9.747462
2023-01-19T09:20:08.752Z,9.747265
2023-01-19T09:21:08.748Z,9.747231
2023-01-19T09:22:08.739Z,9.747333
2023-01-19T09:23:08.781Z,9.747304
2023-01-19T09:24:08.763Z,9.747291
2023-01-19T09:25:08.748Z,9.747415
2023-01-19T09:26:08.716Z,9.747272
2023-01-19T09:27:08.708Z,9.747342
2023-01-19T09:28:08.731Z,9.747461
2023-01-19T09:29:08.707Z,9.747443
2023-01-19T09:30:08.689Z,9.747284
2023-01-19T09:31:08.817Z,9.747202
2023-01-19T09:32:08.670Z,9.747220
2023-01-19T09:33:08.685Z,9.747270
2023-01-19T09:34:08.667Z,9.747366
2023-01-19T09:35:08.654Z,9.747426
2023-01-19T09:36:08.631Z,9.747355
2023-01-19T09:37:08.628Z,9.747335
2023-01-19T09:38:08.653Z,9.747325
2023-01-19T09:39:08.611Z,9.747272
2023-01-19T09:40:08.677Z,9.747313
2023-01-19T09:41:08.598Z,9.747324
2023-01-19T09:42:08.597Z,9.747529
2023-01-19T09:43:08.615Z,9.747246
2023-01-19T09:44:08.584Z,9.747225
2023-01-19T09:45:09.920Z,9.747169
2023-01-19T09:46:08.596Z,9.747168
2023-01-19T09:47:08.562Z,9.747249
2023-01-19T09:48:08.555Z,9.747440
2023-01-19T09:49:08.570Z,9.747319
2023-01-19T09:50:08.540Z,9.747661
2023-01-19T09:51:08.535Z,9.747373
2023-01-19T09:52:08.523Z,9.747416
2023-01-19T09:53:08.516Z,9.747471
2023-01-19T09:54:08.599Z,9.747389
2023-01-19T09:55:08.503Z,9.747323
2023-01-19T09:56:08.491Z,9.747437
2023-01-19T09:57:08.492Z,9.747308
2023-01-19T09:58:08.479Z,9.747526
2023-01-19T09:59:08.527Z,9.747393
2023-01-19T10:00:08.470Z,9.747496
2023-01-19T10:01:08.620Z,9.747464
2023-01-19T10:02:08.462Z,9.747328
2023-01-19T10:03:08.482Z,9.747255
2023-01-19T10:04:08.476Z,9.747060
2023-01-19T10:05:08.426Z,9.747369
2023-01-19T10:06:08.416Z,9.747253
2023-01-19T10:07:08.442Z,9.747374
2023-01-19T10:08:08.415Z,9.747265
2023-01-19T10:09:08.439Z,9.747313
2023-01-19T10:10:08.449Z,9.747355
2023-01-19T10:11:08.414Z,9.747220
2023-01-19T10:12:08.387Z,9.747353
2023-01-19T10:13:08.363Z,9.747301
2023-01-19T10:14:10.011Z,9.747027
2023-01-19T10:15:08.364Z,9.747267
2023-01-19T10:16:08.404Z,9.747653
2023-01-19T10:17:08.342Z,9.747771
2023-01-19T10:18:08.326Z,9.747286
2023-01-19T10:19:08.351Z,9.747535
2023-01-19T10:20:08.311Z,9.747753
2023-01-19T10:21:08.304Z,9.747730
2023-01-19T10:22:08.296Z,9.747672
2023-01-19T10:23:08.307Z,9.747540
2023-01-19T10:24:08.310Z,9.747541
2023-01-19T10:25:08.276Z,9.747500
2023-01-19T10:26:08.261Z,9.747580
2023-01-19T10:27:08.260Z,9.747700
2023-01-19T10:28:08.257Z,9.747648
2023-01-19T10:29:08.652Z,9.747529
2023-01-19T10:30:08.247Z,9.747668
2023-01-19T10:31:08.385Z,9.747625
2023-01-19T10:32:08.288Z,9.747684
2023-01-19T10:33:08.231Z,9.747513
2023-01-19T10:34:08.228Z,9.747583
2023-01-19T10:35:08.196Z,9.747532
2023-01-19T10:36:08.203Z,9.747639
2023-01-19T10:37:08.266Z,9.747475
2023-01-19T10:38:08.215Z,9.747619
2023-01-19T10:39:08.212Z,9.747574
2023-01-19T10:40:08.210Z,9.747521
2023-01-19T10:41:08.149Z,9.747575
2023-01-19T10:42:08.182Z,9.747561
2023-01-19T10:43:40.956Z,9.747591
2023-01-19T10:44:08.192Z,9.747606
2023-01-19T10:45:08.214Z,9.747593
2023-01-19T10:46:08.250Z,9.747489
2023-01-19T10:47:08.178Z,9.747519
2023-01-19T10:48:08.121Z,9.747669
2023-01-19T10:49:08.125Z,9.747662
2023-01-19T10:50:08.249Z,9.747646
2023-01-19T10:51:08.229Z,9.747631
2023-01-19T10:52:08.141Z,9.747540
2023-01-19T10:53:08.181Z,9.747691
2023-01-19T10:54:08.195Z,9.747636
2023-01-19T10:55:08.237Z,9.747546
2023-01-19T10:56:08.097Z,9.747573
2023-01-19T10:57:08.176Z,9.747605
2023-01-19T10:58:08.203Z,9.747587
2023-01-19T10:59:08.157Z,9.747770
2023-01-19T11:00:08.151Z,9.747799
2023-01-19T11:01:08.176Z,9.747708
2023-01-19T11:02:08.273Z,9.747663
2023-01-19T11:03:08.114Z,9.747547
2023-01-19T11:04:08.056Z,9.747594
2023-01-19T11:05:08.247Z,9.747560
2023-01-19T11:06:08.073Z,9.747608
2023-01-19T11:07:08.050Z,9.747525
2023-01-19T11:08:07.989Z,9.747520
2023-01-19T11:09:08.032Z,9.747596
2023-01-19T11:10:08.025Z,9.747522
2023-01-19T11:11:08.039Z,9.747528
2023-01-19T11:12:08.039Z,9.747510
2023-01-19T11:13:07.981Z,9.747481
2023-01-19T11:14:08.205Z,9.747536
2023-01-19T11:15:08.030Z,9.747527
2023-01-19T11:16:08.016Z,9.747606
2023-01-19T11:17:07.972Z,9.747623
2023-01-19T11:18:07.973Z,9.747511
2023-01-19T11:19:08.058Z,9.747477
2023-01-19T11:20:08.025Z,9.747512
2023-01-19T11:21:07.920Z,9.747436
2023-01-19T11:22:07.921Z,9.747462
2023-01-19T11:23:07.951Z,9.747531
2023-01-19T11:24:07.878Z,9.747488
2023-01-19T11:25:07.900Z,9.747503
2023-01-19T11:26:07.957Z,9.747436
2023-01-19T11:27:07.999Z,9.747519
2023-01-19T11:28:07.860Z,9.747555
2023-01-19T11:29:07.817Z,9.747489
2023-01-19T11:30:07.845Z,9.747474
2023-01-19T11:31:07.878Z,9.747463
2023-01-19T11:32:07.883Z,9.747494
2023-01-19T11:33:07.844Z,9.747435
2023-01-19T11:34:07.849Z,9.747410
2023-01-19T11:35:07.810Z,9.747269
2023-01-19T11:36:07.877Z,9.747284
2023-01-19T11:37:07.797Z,9.747222
2023-01-19T11:38:07.792Z,9.747286
2023-01-19T11:39:07.736Z,9.747326
2023-01-19T11:40:07.809Z,9.747334
2023-01-19T11:41:07.815Z,9.747426
2023-01-19T11:42:07.816Z,9.747509
2023-01-19T11:43:07.716Z,9.747419
2023-01-19T11:44:07.775Z,9.747426